createdAt,value
2018-04-04T00:00:30.944Z,43.50
2018-04-04T00:01:31.418Z,43.49
2018-04-04T00:02:31.688Z,43.51
2018-04-04T00:03:32.372Z,43.48
2018-04-04T00:04:32.637Z,43.49
2018-04-04T00:05:33.109Z,43.49
2018-04-04T00:06:33.634Z,43.51
2018-04-04T00:07:34.663Z,43.53
2018-04-04T00:08:34.934Z,43.51
2018-04-04T00:09:35.610Z,43.53
2018-04-04T00:10:35.880Z,43.53
2018-04-04T00:11:35.951Z,43.54
2018-04-04T00:12:36.833Z,43.55
2018-04-04T00:13:37.302Z,43.55
2018-04-04T00:14:37.376Z,43.54
2018-04-04T00:15:37.845Z,43.58
2018-04-04T00:16:38.371Z,43.57
2018-04-04T00:17:38.792Z,43.58
2018-04-04T00:18:39.265Z,43.58
2018-04-04T00:19:39.741Z,43.60
2018-04-04T00:20:40.213Z,43.58
2018-04-04T00:21:40.686Z,43.54
2018-04-04T00:23:41.633Z,43.57
2018-04-04T00:24:42.309Z,43.59
2018-04-04T00:25:42.782Z,43.60
2018-04-04T00:26:43.057Z,43.61
2018-04-04T00:28:44.811Z,43.59
2018-04-04T00:29:44.473Z,43.58
2018-04-04T00:30:44.949Z,43.57
2018-04-04T00:31:45.422Z,43.53
2018-04-04T00:33:46.571Z,43.49
2018-04-04T00:34:47.245Z,43.52
2018-04-04T00:36:48.599Z,43.52
2018-04-04T00:39:49.413Z,43.50
2018-04-04T00:40:49.684Z,43.48
2018-04-04T00:41:50.360Z,43.48
2018-04-04T00:42:51.035Z,43.51
2018-04-04T00:44:51.579Z,43.48
2018-04-04T00:45:52.251Z,43.48
2018-04-04T00:46:53.130Z,43.48
2018-04-04T00:47:52.996Z,43.48
2018-04-04T00:48:54.078Z,43.49
2018-04-04T00:51:54.893Z,43.51
2018-04-04T00:52:55.769Z,43.50
2018-04-04T00:53:57.055Z,43.50
2018-04-04T00:54:56.514Z,43.50
2018-04-04T00:55:56.987Z,43.51
2018-04-04T00:56:57.312Z,43.50
2018-04-04T00:57:58.337Z,43.49
2018-04-04T00:58:59.645Z,43.51
2018-04-04T00:59:59.082Z,43.54
2018-04-04T01:00:59.357Z,43.53
2018-04-04T01:02:00.029Z,43.50
2018-04-04T01:04:00.978Z,43.52
2018-04-04T01:05:01.047Z,43.53
2018-04-04T01:11:05.694Z,43.47
2018-04-04T01:13:06.034Z,43.45
2018-04-04T01:14:06.717Z,43.43
2018-04-04T01:18:10.434Z,43.42
2018-04-04T01:21:09.227Z,43.37
2018-04-04T01:24:11.460Z,43.34
2018-04-04T01:28:12.542Z,43.28
2018-04-04T01:29:15.389Z,43.29
2018-04-04T01:31:14.769Z,43.31
2018-04-04T01:32:14.086Z,43.30
2018-04-04T01:36:18.757Z,43.25
2018-04-04T01:41:18.293Z,43.30
2018-04-04T01:43:24.265Z,43.34
2018-04-04T01:45:21.586Z,43.34
2018-04-04T01:46:20.863Z,43.33
2018-04-04T01:51:22.825Z,43.40
2018-04-04T01:53:23.772Z,43.40
2018-04-04T01:55:26.338Z,43.39
2018-04-04T01:56:28.832Z,43.36
2018-04-04T01:59:27.221Z,43.32
2018-04-04T02:04:31.004Z,43.27
2018-04-04T02:08:31.078Z,43.33
2018-04-04T02:11:32.642Z,43.30
2018-04-04T02:13:34.864Z,43.29
2018-04-04T02:15:35.001Z,43.27
2018-04-04T02:17:38.174Z,43.26
2018-04-04T02:18:39.672Z,43.28
2018-04-04T02:19:49.040Z,43.25
2018-04-04T02:22:38.114Z,43.24
2018-04-04T02:24:38.657Z,43.22
2018-04-04T02:28:40.957Z,43.24
2018-04-04T02:30:41.501Z,43.18
2018-04-04T02:31:41.771Z,43.17
2018-04-04T02:32:42.652Z,43.19
2018-04-04T02:34:44.204Z,43.22
2018-04-04T02:41:47.722Z,43.14
2018-04-04T02:42:48.380Z,43.10
2018-04-04T02:44:49.346Z,43.12
2018-04-04T02:51:53.267Z,43.26
2018-04-04T02:53:55.837Z,43.30
2018-04-04T03:14:21.283Z,43.16
2018-04-04T03:15:17.610Z,43.13
2018-04-04T03:36:27.360Z,43.25
2018-04-04T03:37:29.651Z,43.27
2018-04-04T03:40:31.488Z,43.31
2018-04-04T04:26:49.531Z,43.25
2018-04-04T04:27:57.332Z,43.27
2018-04-04T04:40:03.929Z,43.50
2018-04-04T05:05:46.943Z,43.33
2018-04-04T05:29:22.897Z,43.49
2018-04-04T05:31:24.492Z,43.44
2018-04-04T05:32:36.648Z,43.41
2018-04-04T06:05:33.287Z,43.74
2018-04-04T06:31:45.894Z,43.60
2018-04-04T09:10:55.379Z,44.83
2018-04-04T09:13:09.295Z,43.94
2018-04-04T09:17:37.344Z,46.44
2018-04-04T09:18:36.111Z,47.62
2018-04-04T09:19:36.919Z,49.05
2018-04-04T09:20:37.048Z,50.18
2018-04-04T09:22:37.988Z,51.50
2018-04-04T09:23:38.458Z,51.95
2018-04-04T09:24:38.927Z,52.46
2018-04-04T09:25:39.940Z,52.44
2018-04-04T09:26:40.270Z,52.34
2018-04-04T09:28:40.805Z,52.63
2018-04-04T09:29:41.469Z,52.45
2018-04-04T09:30:42.151Z,52.22
2018-04-04T09:32:42.682Z,49.90
2018-04-04T09:34:43.822Z,49.23
2018-04-04T09:35:44.343Z,50.05
2018-04-04T09:36:44.553Z,51.55
2018-04-04T09:37:45.038Z,52.98
2018-04-04T11:30:55.905Z,57.52
2018-04-04T13:11:14.898Z,55.49
2018-04-04T13:24:44.260Z,53.44
2018-04-04T13:27:37.532Z,52.88
2018-04-04T13:29:54.637Z,52.67
2018-04-04T13:31:18.812Z,52.60
2018-04-04T13:35:59.074Z,52.09
2018-04-04T13:43:58.690Z,51.72
2018-04-04T13:49:00.592Z,52.26
2018-04-04T13:50:00.868Z,52.36
2018-04-04T13:52:02.928Z,52.80
2018-04-04T13:53:02.404Z,52.90
2018-04-04T13:54:02.628Z,53.16
2018-04-04T13:55:02.897Z,53.50
2018-04-04T13:56:03.573Z,53.78
2018-04-04T13:57:04.044Z,54.14
2018-04-04T13:58:04.968Z,54.55
2018-04-04T13:59:04.790Z,54.96
2018-04-04T14:00:05.262Z,55.21
2018-04-04T14:01:05.936Z,55.42
2018-04-04T14:02:06.411Z,55.75
2018-04-04T14:05:07.623Z,56.61
2018-04-04T14:06:08.094Z,56.90
2018-04-04T14:07:08.768Z,57.12
2018-04-04T14:09:09.912Z,57.82
2018-04-04T14:11:10.445Z,58.18
2018-04-04T14:12:10.925Z,58.29
2018-04-04T14:13:11.447Z,58.24
2018-04-04T14:14:11.868Z,58.23
2018-04-04T14:15:12.335Z,58.19
2018-04-04T14:16:13.002Z,58.15
2018-04-04T14:17:13.477Z,57.91
2018-04-04T14:18:13.948Z,57.82
2018-04-04T14:19:14.418Z,57.68
2018-04-04T14:22:15.630Z,57.05
2018-04-04T14:23:16.302Z,56.77
2018-04-04T14:24:16.577Z,56.56
2018-04-04T14:25:17.044Z,56.44
2018-04-04T14:26:17.514Z,56.41
2018-04-04T14:28:18.459Z,55.85
2018-04-04T14:29:18.940Z,55.76
2018-04-04T14:30:19.400Z,55.60
2018-04-04T14:31:19.872Z,55.38
2018-04-04T14:32:20.346Z,55.35
2018-04-04T14:36:22.234Z,54.67
2018-04-04T14:37:22.785Z,54.44
2018-04-04T14:38:23.175Z,54.21
2018-04-04T14:39:23.649Z,54.07
2018-04-04T14:42:25.072Z,53.83
2018-04-04T14:43:25.790Z,53.59
2018-04-04T14:44:26.221Z,53.48
2018-04-04T14:45:26.494Z,53.33
2018-04-04T14:46:26.957Z,53.24
2018-04-04T14:47:27.642Z,53.25
2018-04-04T14:48:39.145Z,53.08
2018-04-04T14:49:28.584Z,53.02
2018-04-04T14:50:29.053Z,53.03
2018-04-04T14:53:30.280Z,52.89
2018-04-04T14:54:30.755Z,52.69
2018-04-04T14:55:31.231Z,52.58
2018-04-04T14:56:31.700Z,52.60
2018-04-04T14:57:32.176Z,52.53
2018-04-04T14:59:33.129Z,52.37
2018-04-04T15:00:33.602Z,52.28
2018-04-04T15:01:34.076Z,52.29
2018-04-04T15:03:35.075Z,52.28
2018-04-04T15:04:35.500Z,52.35
2018-04-04T15:05:35.977Z,52.49
2018-04-04T15:07:36.924Z,52.84
2018-04-04T15:08:49.192Z,53.09
2018-04-04T15:09:37.871Z,53.39
2018-04-04T15:11:38.825Z,53.87
2018-04-04T15:12:39.294Z,54.10
2018-04-04T15:13:39.825Z,54.38
2018-04-04T15:14:40.248Z,54.69
2018-04-04T15:15:40.918Z,55.01
2018-04-04T15:16:41.192Z,55.23
2018-04-04T15:17:41.666Z,55.47
2018-04-04T15:18:42.192Z,55.67
2018-04-04T15:19:42.815Z,55.93
2018-04-04T15:20:43.088Z,56.24
2018-04-04T15:22:44.034Z,56.79
2018-04-04T15:23:44.554Z,57.09
2018-04-04T15:24:45.180Z,57.37
2018-04-04T15:25:45.443Z,57.72
2018-04-04T15:26:45.920Z,58.02
2018-04-04T15:27:46.594Z,58.24
2018-04-04T15:28:47.137Z,58.44
2018-04-04T15:29:47.333Z,58.69
2018-04-04T15:31:48.275Z,58.96
2018-04-04T15:33:49.225Z,59.03
2018-04-04T15:34:49.683Z,58.92
2018-04-04T15:36:50.631Z,58.79
2018-04-04T15:38:51.573Z,58.45
2018-04-04T15:39:52.043Z,58.35
2018-04-04T15:40:52.513Z,58.20
2018-04-04T15:41:52.988Z,58.01
2018-04-04T15:42:53.460Z,57.68
2018-04-04T15:43:53.926Z,57.45
2018-04-04T15:44:54.398Z,57.21
2018-04-04T15:47:55.810Z,56.60
2018-04-04T15:48:56.338Z,56.39
2018-04-04T15:49:56.757Z,56.10
2018-04-04T15:50:57.221Z,55.96
2018-04-04T15:51:57.697Z,55.63
2018-04-04T15:52:58.172Z,55.42
2018-04-04T15:53:58.638Z,55.23
2018-04-04T15:54:59.112Z,54.97
2018-04-04T15:55:59.589Z,54.85
2018-04-04T15:57:00.053Z,54.77
2018-04-04T15:58:00.532Z,54.72
2018-04-04T16:00:01.677Z,54.41
2018-04-04T16:01:01.945Z,54.31
2018-04-04T16:02:02.420Z,54.13
2018-04-04T16:03:02.893Z,54.00
2018-04-04T16:04:03.416Z,53.84
2018-04-04T16:06:04.313Z,53.35
2018-04-04T16:07:04.783Z,53.26
2018-04-04T16:08:05.274Z,53.19
2018-04-04T16:09:05.732Z,53.01
2018-04-04T16:10:06.200Z,52.78
2018-04-04T16:11:06.673Z,52.69
2018-04-04T16:12:07.146Z,52.67
2018-04-04T16:13:07.622Z,52.67
2018-04-04T16:14:08.095Z,52.61
2018-04-04T16:15:08.569Z,52.59
2018-04-04T16:16:09.043Z,52.58
2018-04-04T16:17:09.517Z,52.55
2018-04-04T16:18:09.991Z,52.50
2018-04-04T16:19:10.465Z,52.33
2018-04-04T16:20:10.945Z,52.23
2018-04-04T16:21:11.419Z,52.20
2018-04-04T16:23:12.369Z,51.90
2018-04-04T16:24:12.840Z,51.90
2018-04-04T16:25:13.317Z,51.88
2018-04-04T16:26:13.788Z,51.84
2018-04-04T16:27:14.260Z,51.85
2018-04-04T16:28:14.735Z,51.87
2018-04-04T16:29:15.211Z,51.80
2018-04-04T16:30:15.705Z,51.82
2018-04-04T16:31:16.159Z,51.89
2018-04-04T16:32:16.635Z,52.13
2018-04-04T16:33:17.109Z,52.27
2018-04-04T16:34:29.226Z,52.27
2018-04-04T16:35:18.059Z,52.46
2018-04-04T16:36:18.532Z,52.70
2018-04-04T16:37:19.010Z,53.00
2018-04-04T16:38:19.480Z,53.37
2018-04-04T16:39:19.953Z,53.62
2018-04-04T16:40:20.431Z,53.90
2018-04-04T16:41:20.906Z,54.22
2018-04-04T16:42:21.372Z,54.51
2018-04-04T16:43:21.851Z,54.72
2018-04-04T16:44:22.321Z,54.91
2018-04-04T16:45:22.791Z,55.09
2018-04-04T16:46:23.466Z,55.35
2018-04-04T16:47:23.733Z,55.75
2018-04-04T16:48:24.206Z,56.05
2018-04-04T16:49:24.729Z,56.26
2018-04-04T16:50:25.149Z,56.50
2018-04-04T16:51:25.620Z,56.60
2018-04-04T16:52:26.091Z,56.62
2018-04-04T16:53:26.569Z,56.74
2018-04-04T16:54:27.041Z,56.89
2018-04-04T16:55:27.510Z,56.97
2018-04-04T16:56:27.979Z,57.07
2018-04-04T16:57:28.652Z,57.19
2018-04-04T16:58:28.920Z,57.17
2018-04-04T16:59:29.537Z,57.14
2018-04-04T17:00:29.862Z,57.02
2018-04-04T17:01:30.333Z,56.86
2018-04-04T17:02:30.804Z,56.80
2018-04-04T17:03:31.266Z,56.67
2018-04-04T17:04:31.792Z,56.54
2018-04-04T17:05:32.216Z,56.23
2018-04-04T17:06:32.683Z,55.87
2018-04-04T17:07:33.154Z,55.49
2018-04-04T17:08:33.625Z,55.30
2018-04-04T17:09:34.145Z,55.21
2018-04-04T17:10:34.562Z,55.10
2018-04-04T17:11:35.036Z,55.02
2018-04-04T17:12:35.711Z,54.90
2018-04-04T17:13:35.978Z,54.65
2018-04-04T17:14:36.444Z,54.46
2018-04-04T17:15:36.920Z,54.29
2018-04-04T17:16:37.392Z,54.15
2018-04-04T17:17:37.866Z,53.93
2018-04-04T17:18:38.536Z,53.74
2018-04-04T17:19:39.008Z,53.57
2018-04-04T17:20:39.277Z,53.34
2018-04-04T17:21:39.744Z,53.22
2018-04-04T17:22:40.224Z,53.07
2018-04-04T17:23:40.696Z,52.95
2018-04-04T17:24:41.163Z,52.81
2018-04-04T17:25:41.637Z,52.70
2018-04-04T17:26:42.107Z,52.65
2018-04-04T17:27:42.579Z,52.62
2018-04-04T17:28:43.253Z,52.56
2018-04-04T17:29:43.523Z,52.50
2018-04-04T17:30:44.000Z,52.41
2018-04-04T17:31:44.473Z,52.20
2018-04-04T17:32:44.941Z,52.07
2018-04-04T17:33:45.491Z,51.95
2018-04-04T17:34:45.940Z,51.84
2018-04-04T17:35:46.359Z,51.75
2018-04-04T17:36:46.836Z,51.70
2018-04-04T17:37:47.307Z,51.61
2018-04-04T17:38:47.780Z,51.54
2018-04-04T17:39:48.246Z,51.45
2018-04-04T17:40:48.728Z,51.34
2018-04-04T17:41:49.201Z,51.32
2018-04-04T17:42:49.670Z,51.27
2018-04-04T17:43:50.144Z,51.19
2018-04-04T17:44:50.668Z,51.09
2018-04-04T17:45:51.128Z,51.09
2018-04-04T17:46:51.565Z,51.10
2018-04-04T17:47:52.040Z,51.09
2018-04-04T17:48:52.514Z,51.05
2018-04-04T17:50:53.453Z,50.89
2018-04-04T17:51:54.138Z,50.81
2018-04-04T17:52:54.406Z,50.70
2018-04-04T17:53:54.881Z,50.59
2018-04-04T17:54:55.605Z,50.40
2018-04-04T17:55:56.029Z,50.37
2018-04-04T17:56:56.304Z,50.35
2018-04-04T17:57:56.776Z,50.33
2018-04-04T17:59:57.726Z,50.31
2018-04-04T18:00:58.199Z,50.31
2018-04-04T18:01:58.870Z,50.36
2018-04-04T18:02:59.147Z,50.37
2018-04-04T18:03:59.621Z,50.34
2018-04-04T18:07:01.046Z,50.21
2018-04-04T18:08:01.523Z,50.21
2018-04-04T18:09:01.992Z,50.09
2018-04-04T18:10:02.517Z,49.95
2018-04-04T18:11:02.943Z,49.90
2018-04-04T18:12:03.414Z,49.91
2018-04-04T18:13:03.921Z,49.96
2018-04-04T18:15:04.840Z,50.02
2018-04-04T18:16:05.315Z,50.12
2018-04-04T18:17:05.788Z,50.20
2018-04-04T18:18:06.915Z,50.24
2018-04-04T18:19:06.737Z,50.33
2018-04-04T18:20:07.204Z,50.53
2018-04-04T18:21:07.685Z,50.71
2018-04-04T18:22:08.167Z,50.93
2018-04-04T18:23:08.632Z,51.19
2018-04-04T18:24:09.149Z,51.44
2018-04-04T18:25:09.730Z,51.79
2018-04-04T18:26:10.259Z,52.12
2018-04-04T18:27:10.729Z,52.38
2018-04-04T18:28:11.038Z,52.62
2018-04-04T18:29:11.497Z,52.91
2018-04-04T18:30:11.944Z,53.20
2018-04-04T18:31:12.411Z,53.52
2018-04-04T18:32:12.887Z,53.83
2018-04-04T18:33:13.360Z,54.07
2018-04-04T18:34:13.835Z,54.32
2018-04-04T18:35:14.358Z,54.52
2018-04-04T18:36:14.772Z,54.76
2018-04-04T18:38:15.715Z,55.06
2018-04-04T18:39:16.186Z,55.08
2018-04-04T18:40:16.658Z,55.07
2018-04-04T18:41:17.127Z,55.12
2018-04-04T18:42:17.596Z,55.06
2018-04-04T18:43:18.070Z,54.91
2018-04-04T18:44:18.538Z,54.82
2018-04-04T18:45:19.059Z,54.78
2018-04-04T18:46:19.478Z,54.63
2018-04-04T18:47:19.947Z,54.47
2018-04-04T18:48:20.417Z,54.36
2018-04-04T18:49:20.916Z,54.20
2018-04-04T18:50:21.411Z,54.15
2018-04-04T18:51:21.833Z,53.95
2018-04-04T18:52:22.299Z,53.91
2018-04-04T18:53:22.766Z,53.73
2018-04-04T18:54:23.242Z,53.55
2018-04-04T18:55:23.710Z,53.46
2018-04-04T18:56:24.182Z,53.36
2018-04-04T18:57:24.651Z,53.22
2018-04-04T18:58:25.124Z,53.12
2018-04-04T18:59:25.593Z,53.06
2018-04-04T19:00:26.210Z,53.08
2018-04-04T19:01:26.534Z,53.03
2018-04-04T19:02:27.011Z,52.93
2018-04-04T19:04:27.943Z,52.70
2018-04-04T19:05:28.420Z,52.58
2018-04-04T19:06:28.895Z,52.48
2018-04-04T19:07:29.362Z,52.37
2018-04-04T19:08:29.830Z,52.20
2018-04-04T19:09:30.305Z,52.09
2018-04-04T19:10:30.778Z,51.97
2018-04-04T19:11:31.242Z,51.79
2018-04-04T19:13:32.191Z,51.46
2018-04-04T19:14:32.665Z,51.31
2018-04-04T19:15:44.416Z,51.28
2018-04-04T19:16:33.608Z,51.19
2018-04-04T19:17:34.078Z,51.12
2018-04-04T19:18:34.548Z,50.95
2018-04-04T19:19:35.022Z,50.81
2018-04-04T19:20:35.496Z,50.78
2018-04-04T19:21:35.965Z,50.69
2018-04-04T19:22:36.433Z,50.62
2018-04-04T19:23:36.914Z,50.57
2018-04-04T19:24:37.384Z,50.47
2018-04-04T19:25:37.860Z,50.37
2018-04-04T19:26:38.328Z,50.29
2018-04-04T19:27:38.803Z,50.19
2018-04-04T19:29:39.795Z,50.01
2018-04-04T19:30:40.270Z,49.88
2018-04-04T19:31:40.696Z,49.81
2018-04-04T19:32:41.165Z,49.71
2018-04-04T19:33:41.633Z,49.72
2018-04-04T19:34:42.114Z,49.77
2018-04-04T19:36:43.057Z,49.64
2018-04-04T19:37:43.531Z,49.64
2018-04-04T19:38:44.004Z,49.48
2018-04-04T19:39:44.477Z,49.50
2018-04-04T19:40:44.945Z,49.55
2018-04-04T19:41:45.473Z,49.55
2018-04-04T19:42:45.899Z,49.50
2018-04-04T19:43:46.376Z,49.39
2018-04-04T19:44:46.858Z,49.22
2018-04-04T19:45:47.318Z,49.07
2018-04-04T19:47:48.265Z,48.99
2018-04-04T19:48:48.737Z,49.02
2018-04-04T19:50:49.689Z,49.04
2018-04-04T19:51:50.205Z,49.09
2018-04-04T19:52:50.632Z,49.04
2018-04-04T19:55:52.048Z,48.72
2018-04-04T19:56:52.579Z,48.69
2018-04-04T19:57:53.010Z,48.60
2018-04-04T19:58:53.473Z,48.63
2018-04-04T19:59:53.999Z,48.57
2018-04-04T20:00:54.428Z,48.50
2018-04-04T20:01:54.894Z,48.36
2018-04-04T20:02:55.367Z,48.37
2018-04-04T20:03:55.843Z,48.38
2018-04-04T20:06:57.268Z,48.32
2018-04-04T20:07:57.743Z,48.33
2018-04-04T20:08:58.214Z,48.34
2018-04-04T20:09:58.689Z,48.23
2018-04-04T20:10:59.162Z,48.21
2018-04-04T20:11:59.640Z,48.11
2018-04-04T20:13:00.114Z,47.94
2018-04-04T20:14:00.583Z,47.92
2018-04-04T20:15:01.062Z,47.96
2018-04-04T20:16:01.535Z,47.90
2018-04-04T20:17:02.012Z,47.83
2018-04-04T20:18:02.482Z,47.96
2018-04-04T20:19:02.958Z,47.96
2018-04-04T20:20:03.436Z,47.98
2018-04-04T20:21:03.903Z,47.99
2018-04-04T20:22:04.380Z,47.95
2018-04-04T20:23:04.857Z,47.98
2018-04-04T20:25:05.837Z,47.93
2018-04-04T20:27:06.752Z,47.92
2018-04-04T20:28:07.230Z,47.78
2018-04-04T20:29:07.702Z,47.76
2018-04-04T20:30:08.175Z,47.78
2018-04-04T20:31:08.649Z,47.74
2018-04-04T20:32:09.118Z,47.73
2018-04-04T20:33:09.937Z,47.66
2018-04-04T20:34:10.074Z,47.65
2018-04-04T20:36:11.029Z,47.69
2018-04-04T20:37:11.546Z,47.72
2018-04-04T20:38:11.969Z,47.71
2018-04-04T20:39:13.051Z,47.71
2018-04-04T20:41:13.401Z,47.74
2018-04-04T20:44:15.021Z,47.81
2018-04-04T20:47:27.521Z,48.05
2018-04-04T20:48:16.715Z,48.23
2018-04-04T20:49:17.188Z,48.43
2018-04-04T20:50:17.667Z,48.69
2018-04-04T20:51:18.134Z,48.90
2018-04-04T20:52:30.498Z,49.12
2018-04-04T20:53:19.080Z,49.30
2018-04-04T20:54:19.548Z,49.51
2018-04-04T20:55:20.236Z,49.80
2018-04-04T20:57:20.973Z,50.43
2018-04-04T21:01:23.060Z,51.58
2018-04-04T21:02:23.383Z,51.93
2018-04-04T21:03:24.008Z,52.24
2018-04-04T21:04:24.678Z,52.42
2018-04-04T21:12:06.879Z,53.11
2018-04-04T21:13:07.348Z,52.99
2018-04-04T21:14:07.821Z,52.90
2018-04-04T21:15:08.292Z,52.76
2018-04-04T21:16:08.757Z,52.59
2018-04-04T21:17:09.222Z,52.46
2018-04-04T21:18:09.698Z,52.36
2018-04-04T21:19:10.171Z,52.24
2018-04-04T21:21:11.108Z,52.07
2018-04-04T21:22:11.578Z,51.99
2018-04-04T21:24:12.518Z,51.74
2018-04-04T21:25:12.985Z,51.56
2018-04-04T21:27:13.927Z,51.08
2018-04-04T21:28:14.392Z,50.80
2018-04-04T21:29:14.871Z,50.63
2018-04-04T21:31:15.812Z,50.49
2018-04-04T21:32:16.279Z,50.39
2018-04-04T21:33:16.749Z,50.28
2018-04-04T21:34:17.221Z,50.08
2018-04-04T21:35:17.694Z,50.02
2018-04-04T21:37:18.790Z,49.89
2018-04-04T21:39:19.571Z,49.86
2018-04-04T21:40:20.048Z,49.78
2018-04-04T21:42:32.580Z,49.50
2018-04-04T21:43:21.460Z,49.45
2018-04-04T21:44:21.934Z,49.25
2018-04-04T21:45:22.403Z,49.17
2018-04-04T21:46:22.871Z,49.27
2018-04-04T21:47:23.398Z,49.30
2018-04-04T21:48:23.821Z,49.33
2018-04-04T21:49:24.290Z,49.22
2018-04-04T21:50:24.755Z,49.08
2018-04-04T21:51:25.236Z,49.02
2018-04-04T21:52:37.570Z,48.90
2018-04-04T21:54:27.273Z,48.73
2018-04-04T21:55:27.123Z,48.69
2018-04-04T21:56:27.593Z,48.64
2018-04-04T21:57:28.328Z,48.68
2018-04-04T21:58:28.538Z,48.61
2018-04-04T21:59:29.012Z,48.59
2018-04-04T22:00:29.484Z,48.54
2018-04-04T22:01:29.949Z,48.52
2018-04-04T22:03:30.900Z,48.43
2018-04-04T22:04:31.375Z,48.45
2018-04-04T22:05:31.847Z,48.43
2018-04-04T22:06:32.320Z,48.35
2018-04-04T22:07:32.840Z,48.23
2018-04-04T22:08:33.312Z,48.07
2018-04-04T22:12:35.353Z,47.60
2018-04-04T22:13:35.627Z,47.59
2018-04-04T22:14:36.103Z,47.65
2018-04-04T22:15:36.571Z,47.68
2018-04-04T22:16:37.046Z,47.59
2018-04-04T22:18:37.990Z,47.37
2018-04-04T22:19:38.461Z,47.26
2018-04-04T22:20:39.141Z,47.15
2018-04-04T22:22:39.884Z,47.09
2018-04-04T22:23:40.357Z,47.03
2018-04-04T22:24:40.830Z,47.05
2018-04-04T22:27:42.303Z,47.02
2018-04-04T22:28:42.724Z,47.00
2018-04-04T22:29:43.194Z,47.07
2018-04-04T22:30:43.663Z,47.08
2018-04-04T22:31:44.142Z,47.16
2018-04-04T22:32:44.617Z,47.28
2018-04-04T22:33:45.087Z,47.35
2018-04-04T22:35:46.437Z,47.26
2018-04-04T22:36:46.507Z,47.13
2018-04-04T22:37:47.234Z,47.03
2018-04-04T22:38:47.455Z,47.09
2018-04-04T22:39:47.928Z,47.19
2018-04-04T22:40:48.402Z,47.25
2018-04-04T22:41:48.871Z,47.10
2018-04-04T22:43:00.626Z,47.08
2018-04-04T22:43:49.824Z,47.11
2018-04-04T22:44:50.294Z,47.15
2018-04-04T22:45:50.767Z,47.08
2018-04-04T22:47:51.717Z,46.94
2018-04-04T22:48:52.385Z,46.94
2018-04-04T22:49:52.863Z,47.01
2018-04-04T22:50:53.140Z,47.03
2018-04-04T22:51:54.013Z,46.91
2018-04-04T22:53:54.761Z,46.86
2018-04-04T22:55:55.503Z,47.02
2018-04-04T22:56:55.976Z,47.09
2018-04-04T22:57:56.502Z,47.15
2018-04-04T23:00:58.073Z,47.18
2018-04-04T23:01:58.343Z,47.13
2018-04-04T23:03:59.696Z,47.13
2018-04-04T23:04:59.966Z,47.13
2018-04-04T23:06:00.236Z,47.15
2018-04-04T23:09:01.660Z,47.15
2018-04-04T23:10:02.332Z,47.10
2018-04-04T23:11:02.600Z,47.21
2018-04-04T23:14:04.230Z,47.31
2018-04-04T23:17:05.647Z,47.17
2018-04-04T23:18:06.727Z,47.14
2018-04-04T23:19:06.391Z,47.10
2018-04-04T23:22:08.617Z,47.15
2018-04-04T23:23:08.743Z,47.13
2018-04-04T23:24:08.761Z,47.13
2018-04-04T23:26:09.909Z,47.20
2018-04-04T23:27:10.386Z,47.22
2018-04-04T23:28:10.705Z,47.24
2018-04-04T23:29:11.124Z,47.27
2018-04-04T23:30:12.005Z,47.26
2018-04-04T23:31:12.077Z,47.23
2018-04-04T23:32:12.551Z,47.23
2018-04-04T23:33:13.625Z,47.24
2018-04-04T23:34:13.698Z,47.24
2018-04-04T23:36:14.444Z,47.21
2018-04-04T23:38:15.445Z,47.30
2018-04-04T23:39:15.866Z,47.22
2018-04-04T23:40:16.340Z,47.20
2018-04-04T23:41:16.817Z,47.17
2018-04-04T23:42:17.285Z,47.09
2018-04-04T23:43:17.761Z,47.04
2018-04-04T23:44:18.233Z,47.03
2018-04-04T23:45:18.707Z,47.11
2018-04-04T23:46:19.206Z,47.09
2018-04-04T23:48:20.177Z,47.05
2018-04-04T23:49:20.604Z,47.03
2018-04-04T23:50:21.074Z,47.05
2018-04-04T23:51:21.541Z,47.03
2018-04-04T23:52:22.022Z,46.96
2018-04-04T23:53:22.495Z,46.93
2018-04-04T23:54:22.972Z,46.88
2018-04-04T23:55:23.444Z,46.82
2018-04-04T23:56:23.920Z,46.82
2018-04-04T23:57:24.388Z,46.87
2018-04-04T23:58:24.857Z,46.88
2018-04-04T23:59:25.337Z,46.89
